createdAt,value
2019-01-04T00:01:26.356Z,11.47
2019-01-04T00:05:38.898Z,10.87
2019-01-04T00:09:51.707Z,13.57
2019-01-04T00:14:04.454Z,13.53
2019-01-04T00:18:17.424Z,11.97
2019-01-04T00:22:29.837Z,13.00
2019-01-04T00:26:42.235Z,11.23
2019-01-04T00:30:54.907Z,12.93
2019-01-04T00:35:07.833Z,12.03
2019-01-04T00:39:20.583Z,12.53
2019-01-04T00:43:33.156Z,13.73
2019-01-04T00:47:46.010Z,11.83
2019-01-04T00:51:58.648Z,10.27
2019-01-04T00:56:57.065Z,12.43
2019-01-04T01:01:45.328Z,11.23
2019-01-04T01:06:33.770Z,12.80
2019-01-04T01:11:21.211Z,13.10
2019-01-04T01:15:57.538Z,11.37
2019-01-04T01:21:02.660Z,10.37
2019-01-04T01:26:03.489Z,13.30
2019-01-04T01:30:55.133Z,11.90
2019-01-04T01:35:55.672Z,17.53
2019-01-04T01:41:09.108Z,10.50
2019-01-04T01:45:58.191Z,10.13
2019-01-04T01:51:06.200Z,10.40
2019-01-04T01:55:19.015Z,12.67
2019-01-04T01:59:31.924Z,11.43
2019-01-04T02:03:44.489Z,10.80
2019-01-04T02:07:56.899Z,12.77
2019-01-04T02:12:09.784Z,13.77
2019-01-04T02:16:22.456Z,11.20
2019-01-04T02:20:35.505Z,11.50
2019-01-04T02:24:48.070Z,11.20
2019-01-04T02:29:00.876Z,13.17
2019-01-04T02:33:13.452Z,10.70
2019-01-04T02:37:26.311Z,13.27
2019-01-04T02:41:41.292Z,10.57
2019-01-04T02:45:54.936Z,9.87
2019-01-04T02:50:08.846Z,10.23
2019-01-04T02:54:21.209Z,12.63
2019-01-04T02:58:34.103Z,11.60
2019-01-04T03:02:46.591Z,10.87
2019-01-04T03:06:59.492Z,11.80
2019-01-04T03:11:12.051Z,12.07
2019-01-04T03:15:24.929Z,11.50
2019-01-04T03:19:37.664Z,9.50
2019-01-04T03:23:50.577Z,9.50
2019-01-04T03:28:03.216Z,9.87
2019-01-04T03:32:16.226Z,10.63
2019-01-04T03:36:28.693Z,42.10
2019-01-04T03:40:41.662Z,8.57
2019-01-04T03:44:54.688Z,11.37
2019-01-04T03:49:07.515Z,9.10
2019-01-04T03:53:21.223Z,12.67
2019-01-04T03:57:33.736Z,11.00
2019-01-04T04:01:46.687Z,10.07
2019-01-04T04:05:59.188Z,10.80
2019-01-04T04:10:12.056Z,11.50
2019-01-04T04:14:24.589Z,10.67
2019-01-04T04:18:37.576Z,9.90
2019-01-04T04:22:50.080Z,12.80
2019-01-04T04:27:02.492Z,7.40
2019-01-04T04:31:15.355Z,9.90
2019-01-04T04:35:27.724Z,9.80
2019-01-04T04:39:40.708Z,11.27
2019-01-04T04:43:53.275Z,9.93
2019-01-04T04:48:05.699Z,11.40
2019-01-04T04:52:18.469Z,8.37
2019-01-04T04:56:30.836Z,11.40
2019-01-04T05:00:43.812Z,11.07
2019-01-04T05:04:56.464Z,12.20
2019-01-04T05:09:09.732Z,11.30
2019-01-04T05:13:22.123Z,9.77
2019-01-04T05:17:34.979Z,11.03
2019-01-04T05:21:47.647Z,11.20
2019-01-04T05:26:00.404Z,12.63
2019-01-04T05:30:12.824Z,10.40
2019-01-04T05:34:26.049Z,8.87
2019-01-04T05:38:38.465Z,10.73
2019-01-04T05:42:51.243Z,9.30
2019-01-04T05:47:03.815Z,9.70
2019-01-04T05:51:17.367Z,9.77
2019-01-04T05:55:30.127Z,7.70
2019-01-04T05:59:43.778Z,11.37
2019-01-04T06:03:56.368Z,9.10
2019-01-04T06:08:09.175Z,11.37
2019-01-04T06:12:21.683Z,12.67
2019-01-04T06:16:34.628Z,9.83
2019-01-04T06:20:47.305Z,9.17
2019-01-04T06:25:00.231Z,10.50
2019-01-04T06:29:12.585Z,10.93
2019-01-04T06:33:25.547Z,10.97
2019-01-04T06:37:38.097Z,9.97
2019-01-04T06:41:51.008Z,10.13
2019-01-04T06:46:03.681Z,10.33
2019-01-04T06:50:16.649Z,14.40
2019-01-04T06:55:05.409Z,11.43
2019-01-04T06:59:17.988Z,12.47
2019-01-04T07:03:30.404Z,12.73
2019-01-04T07:07:43.394Z,11.77
2019-01-04T07:11:55.871Z,11.37
2019-01-04T07:16:08.789Z,12.27
2019-01-04T07:20:21.416Z,11.90
2019-01-04T07:24:34.147Z,13.23
2019-01-04T07:28:46.543Z,11.93
2019-01-04T07:32:59.723Z,12.83
2019-01-04T07:37:12.368Z,13.37
2019-01-04T07:41:25.391Z,13.87
2019-01-04T07:45:38.198Z,11.07
2019-01-04T07:49:51.045Z,12.53
2019-01-04T07:54:03.677Z,16.27
2019-01-04T07:58:16.464Z,11.53
2019-01-04T08:02:45.863Z,12.37
2019-01-04T08:06:58.707Z,12.77
2019-01-04T08:11:11.247Z,11.60
2019-01-04T08:15:24.157Z,11.37
2019-01-04T08:19:36.836Z,12.10
2019-01-04T08:23:49.759Z,11.17
2019-01-04T08:28:02.263Z,12.73
2019-01-04T08:32:15.146Z,13.00
2019-01-04T08:36:27.711Z,13.70
2019-01-04T08:40:40.895Z,14.23
2019-01-04T08:44:53.365Z,11.90
2019-01-04T08:49:06.139Z,13.00
2019-01-04T08:53:20.488Z,12.50
2019-01-04T08:57:33.424Z,12.80
2019-01-04T09:01:45.995Z,12.90
2019-01-04T09:05:58.972Z,12.63
2019-01-04T09:10:12.752Z,12.50
2019-01-04T09:14:26.426Z,12.73
2019-01-04T09:18:38.904Z,11.73
2019-01-04T09:22:51.874Z,12.07
2019-01-04T09:27:04.625Z,9.73
2019-01-04T09:31:17.421Z,9.57
2019-01-04T09:35:29.824Z,10.23
2019-01-04T09:39:42.596Z,11.37
2019-01-04T09:43:55.334Z,10.47
2019-01-04T09:48:07.692Z,10.70
2019-01-04T09:52:20.555Z,9.53
2019-01-04T09:56:33.032Z,9.20
2019-01-04T10:00:45.903Z,9.23
2019-01-04T10:04:58.483Z,10.67
2019-01-04T10:09:11.440Z,8.10
2019-01-04T10:13:24.093Z,8.60
2019-01-04T10:17:36.610Z,9.73
2019-01-04T10:21:49.423Z,9.37
2019-01-04T10:26:01.984Z,9.93
2019-01-04T10:30:26.528Z,8.30
2019-01-04T10:34:39.939Z,9.47
2019-01-04T10:38:52.248Z,11.37
2019-01-04T10:43:05.179Z,10.37
2019-01-04T10:47:17.476Z,9.23
2019-01-04T10:51:30.468Z,10.40
2019-01-04T10:55:43.126Z,9.33
2019-01-04T10:59:55.996Z,10.47
2019-01-04T11:04:08.679Z,10.87
2019-01-04T11:08:21.648Z,10.27
2019-01-04T11:12:35.351Z,9.60
2019-01-04T11:16:47.943Z,9.93
2019-01-04T11:21:03.275Z,8.27
2019-01-04T11:25:45.885Z,9.93
2019-01-04T11:30:24.595Z,9.53
2019-01-04T11:35:21.344Z,11.10
2019-01-04T11:40:00.663Z,9.87
2019-01-04T11:44:39.359Z,9.43
2019-01-04T11:49:37.773Z,11.00
2019-01-04T11:53:51.292Z,11.33
2019-01-04T11:58:04.158Z,10.17
2019-01-04T12:02:16.821Z,11.33
2019-01-04T12:06:29.447Z,9.07
2019-01-04T12:10:42.159Z,10.80
2019-01-04T12:14:54.687Z,8.97
2019-01-04T12:19:07.168Z,7.80
2019-01-04T12:23:20.015Z,8.23
2019-01-04T12:27:32.642Z,8.73
2019-01-04T12:31:45.660Z,7.73
2019-01-04T12:35:58.195Z,7.90
2019-01-04T12:40:10.710Z,7.43
2019-01-04T12:44:24.265Z,7.30
2019-01-04T12:48:37.110Z,6.33
2019-01-04T12:52:49.598Z,7.50
2019-01-04T12:57:02.031Z,6.57
2019-01-04T13:01:14.798Z,7.30
2019-01-04T13:05:27.476Z,6.60
2019-01-04T13:09:41.442Z,8.67
2019-01-04T13:13:54.164Z,7.67
2019-01-04T13:18:06.698Z,8.87
2019-01-04T13:22:19.647Z,8.03
2019-01-04T13:26:32.264Z,7.37
2019-01-04T13:30:45.166Z,7.00
2019-01-04T13:34:58.759Z,7.40
2019-01-04T13:39:14.532Z,8.40
2019-01-04T13:43:27.279Z,6.53
2019-01-04T13:47:39.708Z,5.73
2019-01-04T13:51:53.239Z,5.87
2019-01-04T13:56:06.115Z,5.43
2019-01-04T14:00:18.724Z,5.77
2019-01-04T14:04:31.558Z,5.90
2019-01-04T14:08:44.208Z,8.00
2019-01-04T14:12:56.904Z,7.83
2019-01-04T14:17:09.382Z,7.93
2019-01-04T14:21:22.492Z,7.13
2019-01-04T14:25:35.204Z,5.47
2019-01-04T14:29:48.099Z,6.03
2019-01-04T14:34:00.575Z,7.07
2019-01-04T14:38:13.039Z,9.13
2019-01-04T14:42:25.759Z,8.90
2019-01-04T14:46:39.456Z,6.50
2019-01-04T14:50:52.531Z,7.30
2019-01-04T14:55:06.361Z,5.63
2019-01-04T14:59:19.312Z,6.37
2019-01-04T15:03:33.067Z,4.97
2019-01-04T15:07:45.531Z,8.93
2019-01-04T15:11:58.612Z,6.60
2019-01-04T15:16:11.182Z,6.60
2019-01-04T15:20:24.192Z,8.47
2019-01-04T15:24:36.828Z,7.23
2019-01-04T15:28:49.774Z,6.03
2019-01-04T15:33:02.279Z,6.80
2019-01-04T15:37:14.680Z,7.53
2019-01-04T15:41:28.150Z,6.23
2019-01-04T15:45:41.003Z,5.20
2019-01-04T15:49:53.578Z,7.97
2019-01-04T15:54:06.343Z,7.17
2019-01-04T15:58:19.095Z,7.47
2019-01-04T16:02:32.222Z,8.63
2019-01-04T16:06:44.780Z,8.47
2019-01-04T16:10:57.752Z,9.33
2019-01-04T16:15:11.144Z,10.03
2019-01-04T16:19:23.860Z,9.23
2019-01-04T16:23:36.525Z,8.73
2019-01-04T16:27:49.462Z,8.73
2019-01-04T16:32:02.104Z,9.97
2019-01-04T16:36:14.913Z,11.50
2019-01-04T16:40:27.479Z,9.57
2019-01-04T16:44:40.361Z,9.00
2019-01-04T16:48:52.929Z,11.23
2019-01-04T16:53:05.795Z,9.57
2019-01-04T16:57:18.676Z,10.67
2019-01-04T17:01:31.546Z,9.57
2019-01-04T17:05:44.023Z,10.00
2019-01-04T17:09:57.117Z,11.37
2019-01-04T17:14:09.662Z,9.80
2019-01-04T17:18:23.323Z,10.93
2019-01-04T17:22:36.880Z,9.73
2019-01-04T17:26:49.831Z,11.27
2019-01-04T17:31:02.419Z,10.43
2019-01-04T17:35:15.348Z,10.87
2019-01-04T17:39:28.168Z,10.27
2019-01-04T17:43:40.935Z,10.10
2019-01-04T17:47:53.507Z,15.63
2019-01-04T17:52:06.379Z,13.83
2019-01-04T17:56:18.948Z,13.60
2019-01-04T18:00:31.834Z,12.03
2019-01-04T18:04:44.655Z,13.13
2019-01-04T18:08:57.139Z,13.27
2019-01-04T18:13:09.996Z,13.07
2019-01-04T18:17:22.704Z,13.47
2019-01-04T18:21:35.606Z,13.37
2019-01-04T18:25:48.323Z,18.77
2019-01-04T18:30:01.131Z,16.07
2019-01-04T18:34:13.747Z,17.10
2019-01-04T18:38:26.198Z,18.33
2019-01-04T18:42:38.872Z,16.57
2019-01-04T18:46:51.312Z,17.37
2019-01-04T18:51:04.187Z,18.87
2019-01-04T18:55:16.653Z,17.63
2019-01-04T18:59:30.202Z,20.43
2019-01-04T19:03:43.075Z,19.67
2019-01-04T19:07:55.712Z,17.90
2019-01-04T19:12:08.629Z,19.50
2019-01-04T19:16:21.294Z,22.70
2019-01-04T19:20:34.271Z,17.53
2019-01-04T19:24:47.896Z,21.80
2019-01-04T19:29:00.487Z,20.00
2019-01-04T19:33:13.362Z,21.37
2019-01-04T19:37:26.149Z,21.97
2019-01-04T19:41:38.911Z,22.03
2019-01-04T19:45:51.481Z,17.97
2019-01-04T19:50:16.588Z,19.73
2019-01-04T19:54:29.216Z,17.87
2019-01-04T19:58:42.753Z,20.33
2019-01-04T20:02:55.173Z,19.30
2019-01-04T20:08:12.612Z,21.60
2019-01-04T20:13:26.607Z,21.10
2019-01-04T20:18:07.387Z,20.73
2019-01-04T20:22:37.313Z,24.73
2019-01-04T20:27:05.652Z,23.80
2019-01-04T20:31:46.277Z,24.50
2019-01-04T20:36:16.315Z,23.60
2019-01-04T20:40:51.149Z,22.03
2019-01-04T20:45:21.073Z,22.60
2019-01-04T20:49:55.606Z,22.43
2019-01-04T20:54:25.225Z,23.43
2019-01-04T20:58:55.712Z,22.57
2019-01-04T21:03:33.887Z,25.53
2019-01-04T21:08:08.008Z,23.60
2019-01-04T21:12:45.943Z,25.17
2019-01-04T21:17:26.498Z,21.27
2019-01-04T21:22:12.807Z,20.87
2019-01-04T21:26:43.962Z,21.00
2019-01-04T21:31:14.092Z,20.87
2019-01-04T21:36:00.300Z,20.33
2019-01-04T21:40:34.268Z,20.07
2019-01-04T21:45:18.836Z,19.87
2019-01-04T21:49:48.818Z,22.00
2019-01-04T21:54:20.176Z,20.27
2019-01-04T21:59:10.174Z,21.57
2019-01-04T22:03:56.485Z,23.73
2019-01-04T22:08:42.997Z,19.63
2019-01-04T22:13:23.470Z,21.50
2019-01-04T22:17:51.371Z,19.93
2019-01-04T22:22:25.985Z,18.57
2019-01-04T22:26:57.140Z,17.27
2019-01-04T22:31:28.500Z,19.77
2019-01-04T22:35:59.450Z,19.10
2019-01-04T22:40:36.751Z,19.30
2019-01-04T22:45:10.667Z,23.20
2019-01-04T22:49:40.643Z,18.80
2019-01-04T22:54:10.519Z,20.70
2019-01-04T22:58:40.241Z,19.17
2019-01-04T23:03:10.268Z,18.67
2019-01-04T23:07:41.731Z,21.90
2019-01-04T23:12:23.125Z,20.23
2019-01-04T23:17:00.219Z,20.40
2019-01-04T23:22:04.758Z,21.60
2019-01-04T23:26:39.188Z,19.10
2019-01-04T23:31:09.626Z,20.13
2019-01-04T23:35:40.624Z,23.53
2019-01-04T23:40:28.671Z,20.47
2019-01-04T23:45:19.260Z,20.60
2019-01-04T23:49:53.260Z,20.77
2019-01-04T23:54:24.772Z,19.00
2019-01-04T23:58:55.876Z,19.60
